Time;durP1;ratioP1;P1;durP2;ratioP2;P2;SDS_P1;SDS_P2;PMS_P1;PMS_P2;Temp;Humidity;BMP_temperature;BMP_pressure;BME280_temperature;BME280_humidity;BME280_pressure;Samples;Min_cycle;Max_cycle;Signal;HPM_P1;HPM_P2
2022/02/20 00:01:35;;;;;;;20.60;9.98;;;;;;;6.57;83.47;100806.44;5032634;28;20041;-73
2022/02/20 00:04:02;;;;;;;14.82;8.55;;;;;;;6.48;83.60;100803.34;5032309;28;20029;-77
2022/02/20 00:06:31;;;;;;;18.65;9.07;;;;;;;6.43;84.10;100795.38;5032583;28;20107;-72
2022/02/20 00:08:57;;;;;;;23.38;11.10;;;;;;;6.22;83.88;100750.50;4997592;28;20447;-75
2022/02/20 00:11:22;;;;;;;19.02;10.77;;;;;;;6.51;83.45;100802.63;5032341;28;20040;-73
2022/02/20 00:13:47;;;;;;;19.83;10.40;;;;;;;6.58;83.29;100792.81;5032356;28;20033;-75
2022/02/20 00:16:13;;;;;;;24.88;9.05;;;;;;;6.44;81.27;100768.03;5032224;28;20124;-75
2022/02/20 00:18:38;;;;;;;20.33;8.95;;;;;;;6.50;80.13;100781.22;5032095;28;20036;-73
2022/02/20 00:21:04;;;;;;;22.83;8.70;;;;;;;6.59;79.30;100789.47;5032376;28;20642;-73
2022/02/20 00:23:30;;;;;;;21.30;9.07;;;;;;;6.54;79.08;100774.59;5032100;28;20095;-73
2022/02/20 00:25:55;;;;;;;14.18;8.10;;;;;;;6.66;78.54;100785.56;5032152;28;20080;-75
2022/02/20 00:28:23;;;;;;;17.45;8.27;;;;;;;6.68;78.01;100790.78;5032038;28;20484;-77
2022/02/20 00:30:49;;;;;;;24.08;9.07;;;;;;;6.52;78.80;100792.47;5031891;28;20520;-75
2022/02/20 00:33:14;;;;;;;15.23;9.27;;;;;;;6.50;78.52;100809.44;5031910;28;20032;-73
2022/02/20 00:35:40;;;;;;;15.70;8.85;;;;;;;6.47;78.01;100792.19;5031781;28;20033;-72
2022/02/20 00:38:07;;;;;;;16.08;9.55;;;;;;;6.39;78.47;100787.41;5014480;28;20045;-76
2022/02/20 00:40:33;;;;;;;16.15;9.10;;;;;;;6.26;79.05;100789.22;5031596;28;20029;-75
2022/02/20 00:42:59;;;;;;;15.77;9.90;;;;;;;6.22;79.43;100792.41;5031780;28;20025;-79
2022/02/20 00:45:26;;;;;;;17.08;9.43;;;;;;;6.20;79.68;100793.13;5031483;28;20029;-72
2022/02/20 00:47:51;;;;;;;21.42;9.93;;;;;;;5.93;79.82;100760.78;5031512;28;20033;-75
2022/02/20 00:50:17;;;;;;;16.33;9.55;;;;;;;5.90;79.16;100783.63;5013976;28;20048;-76
2022/02/20 00:52:42;;;;;;;18.15;9.68;;;;;;;5.87;79.35;100816.78;5031664;28;20077;-76
2022/02/20 00:55:08;;;;;;;17.92;9.48;;;;;;;5.78;79.82;100813.63;5013796;28;20484;-79
2022/02/20 00:57:34;;;;;;;22.55;9.65;;;;;;;5.60;80.60;100814.25;5031344;28;20029;-80
2022/02/20 00:59:59;;;;;;;13.85;9.13;;;;;;;5.34;80.88;100793.00;5031385;28;20107;-77
2022/02/20 01:02:25;;;;;;;19.15;9.32;;;;;;;5.15;81.94;100795.22;5031143;28;20514;-76
2022/02/20 01:04:51;;;;;;;25.23;10.75;;;;;;;5.12;82.31;100821.50;5031782;28;20029;-80
2022/02/20 01:07:18;;;;;;;16.42;9.20;;;;;;;4.27;86.93;100813.34;5031555;28;20096;-74
2022/02/20 01:09:44;;;;;;;18.95;9.68;;;;;;;4.28;88.33;100829.59;5031353;28;20057;-80
2022/02/20 01:12:10;;;;;;;19.02;10.10;;;;;;;4.07;88.38;100763.44;5031232;28;20092;-80
2022/02/20 01:14:35;;;;;;;18.52;10.15;;;;;;;4.60;87.57;100818.97;5030999;28;20479;-79
2022/02/20 01:17:01;;;;;;;17.50;11.50;;;;;;;4.41;86.71;100767.38;5031235;28;20071;-77
2022/02/20 01:19:26;;;;;;;16.85;10.30;;;;;;;4.63;87.08;100806.38;5031383;28;20428;-74
2022/02/20 01:21:51;;;;;;;20.83;9.80;;;;;;;4.59;87.44;100795.84;5031255;28;20422;-75
2022/02/20 01:24:17;;;;;;;19.30;11.15;;;;;;;4.64;87.21;100803.03;5030973;28;20119;-79
2022/02/20 01:26:42;;;;;;;19.80;10.88;;;;;;;4.59;88.13;100812.06;5030971;28;20029;-75
2022/02/20 01:29:08;;;;;;;14.85;9.50;;;;;;;4.57;89.26;100800.84;5031031;28;20563;-75
2022/02/20 01:31:34;;;;;;;18.40;10.40;;;;;;;4.52;89.33;100787.78;5030861;28;20037;-76
2022/02/20 01:33:59;;;;;;;16.58;9.23;;;;;;;4.72;89.08;100795.00;5031013;28;20461;-78
2022/02/20 01:36:25;;;;;;;19.40;9.00;;;;;;;4.88;88.72;100800.31;5030932;28;20168;-80
2022/02/20 01:38:50;;;;;;;13.63;8.65;;;;;;;4.84;87.86;100786.44;5031004;28;20029;-80
2022/02/20 01:41:17;;;;;;;16.55;9.50;;;;;;;4.78;87.91;100759.56;5030838;28;20021;-79
2022/02/20 01:43:43;;;;;;;14.48;8.65;;;;;;;4.93;87.51;100760.56;5030666;28;20033;-81
2022/02/20 01:46:08;;;;;;;15.20;9.30;;;;;;;5.14;86.95;100767.84;5030736;28;20044;-76
2022/02/20 01:48:36;;;;;;;15.77;8.82;;;;;;;5.18;86.54;100760.47;5030927;28;20399;-75
2022/02/20 01:51:03;;;;;;;13.05;9.38;;;;;;;4.70;86.64;100701.13;5030631;28;20041;-76
2022/02/20 01:53:28;;;;;;;15.18;9.70;;;;;;;4.86;87.74;100740.50;5030788;28;20050;-75
2022/02/20 01:55:54;;;;;;;16.52;10.13;;;;;;;4.55;89.82;100748.75;5030662;28;20033;-74
2022/02/20 01:58:20;;;;;;;15.52;10.00;;;;;;;4.51;90.76;100724.63;5013116;28;20029;-75
2022/02/20 02:00:46;;;;;;;16.50;10.00;;;;;;;4.96;90.14;100753.09;5030445;28;20033;-75
2022/02/20 02:03:13;;;;;;;18.10;10.02;;;;;;;5.15;89.05;100754.28;4979336;28;20045;-81
2022/02/20 02:05:39;;;;;;;18.90;9.88;;;;;;;5.01;88.21;100695.41;5030679;28;20034;-81
2022/02/20 02:08:05;;;;;;;14.65;9.27;;;;;;;5.39;86.68;100741.22;5030523;28;20025;-74
2022/02/20 02:10:30;;;;;;;17.02;9.95;;;;;;;5.14;86.60;100703.88;5033496;28;20554;-78
2022/02/20 02:12:56;;;;;;;19.58;9.40;;;;;;;4.99;89.47;100740.47;5034547;28;20025;-76
2022/02/20 02:15:21;;;;;;;18.48;9.60;;;;;;;5.06;91.04;100730.63;5034445;28;20041;-74
2022/02/20 02:17:47;;;;;;;15.15;9.65;;;;;;;5.32;91.39;100752.75;5034720;28;20053;-77
2022/02/20 02:20:12;;;;;;;16.90;9.35;;;;;;;5.31;90.75;100745.88;5034567;28;20059;-80
2022/02/20 02:22:38;;;;;;;17.45;10.10;;;;;;;5.33;91.52;100744.28;5034764;28;20029;-76
2022/02/20 02:25:05;;;;;;;22.80;9.60;;;;;;;5.10;92.00;100753.09;5034352;28;20036;-80
2022/02/20 02:27:31;;;;;;;24.50;12.63;;;;;;;5.14;92.56;100737.13;5034177;28;20029;-76
2022/02/20 02:29:56;;;;;;;24.17;12.80;;;;;;;5.15;91.97;100718.44;5034211;28;20026;-75
2022/02/20 02:32:22;;;;;;;21.20;11.88;;;;;;;5.08;91.97;100723.94;5034425;28;20067;-78
2022/02/20 02:34:48;;;;;;;17.63;11.32;;;;;;;5.07;91.43;100730.75;5034540;28;20045;-74
2022/02/20 02:37:14;;;;;;;23.48;11.48;;;;;;;5.00;91.59;100739.69;5034081;28;20037;-74
2022/02/20 02:39:42;;;;;;;23.00;12.15;;;;;;;4.84;92.11;100745.50;5034175;28;20080;-78
2022/02/20 02:42:09;;;;;;;29.80;11.32;;;;;;;4.89;91.25;100739.81;5033977;28;20083;-77
2022/02/20 02:44:35;;;;;;;23.05;12.38;;;;;;;4.91;88.70;100745.91;5033888;28;20025;-79
2022/02/20 02:47:01;;;;;;;19.08;10.98;;;;;;;4.89;88.08;100740.69;5034116;28;20029;-76
2022/02/20 02:49:26;;;;;;;26.73;12.18;;;;;;;4.91;87.36;100756.13;5033929;28;20029;-77
2022/02/20 02:51:52;;;;;;;21.92;10.88;;;;;;;4.71;87.51;100725.06;5033751;28;20431;-74
2022/02/20 02:54:17;;;;;;;25.42;10.35;;;;;;;4.97;87.48;100761.63;5033839;28;20029;-77
2022/02/20 02:56:44;;;;;;;19.10;9.80;;;;;;;5.01;87.23;100763.63;5033738;28;20045;-74
2022/02/20 02:59:10;;;;;;;25.38;9.68;;;;;;;5.16;86.58;100756.91;5033648;28;20087;-77
2022/02/20 03:01:36;;;;;;;20.05;10.70;;;;;;;5.06;85.85;100707.59;5034094;28;20423;-76
2022/02/20 03:04:01;;;;;;;16.65;9.85;;;;;;;5.38;85.87;100763.38;5033483;28;20025;-78
2022/02/20 03:06:27;;;;;;;17.05;10.00;;;;;;;5.35;86.42;100753.81;5033603;28;20037;-77
2022/02/20 03:08:52;;;;;;;18.67;9.63;;;;;;;5.43;85.32;100771.34;5033417;28;20498;-78
2022/02/20 03:11:18;;;;;;;18.95;9.77;;;;;;;4.86;85.88;100756.72;5033513;28;20500;-73
2022/02/20 03:13:43;;;;;;;16.67;10.18;;;;;;;4.41;86.90;100698.38;5031977;28;20060;-73
2022/02/20 03:16:09;;;;;;;15.93;9.38;;;;;;;4.76;86.62;100756.94;5033600;28;20029;-78
2022/02/20 03:18:35;;;;;;;23.15;10.13;;;;;;;4.86;86.29;100768.66;5033523;28;20031;-75
2022/02/20 03:21:03;;;;;;;19.95;10.55;;;;;;;4.87;86.40;100772.94;5033066;28;20042;-74
2022/02/20 03:23:29;;;;;;;16.02;9.80;;;;;;;4.73;86.86;100774.63;5033395;28;20030;-79
2022/02/20 03:25:54;;;;;;;18.45;10.07;;;;;;;4.65;87.20;100758.78;5033145;28;20400;-77
2022/02/20 03:28:20;;;;;;;18.85;9.05;;;;;;;4.78;86.66;100773.25;5033461;28;20033;-73
2022/02/20 03:30:46;;;;;;;22.65;9.88;;;;;;;4.78;87.26;100749.34;5033282;28;20116;-74
2022/02/20 03:33:11;;;;;;;18.17;9.52;;;;;;;4.67;88.09;100717.94;5032890;28;20037;-75
2022/02/20 03:35:38;;;;;;;16.88;9.93;;;;;;;4.50;88.60;100686.19;5032949;28;20472;-75
2022/02/20 03:38:04;;;;;;;17.15;9.25;;;;;;;5.00;88.43;100760.16;5033068;28;20036;-78
2022/02/20 03:40:30;;;;;;;24.13;10.52;;;;;;;5.01;88.15;100749.16;5032821;28;20078;-76
2022/02/20 03:42:55;;;;;;;17.60;9.73;;;;;;;5.00;87.57;100739.69;5033038;28;20111;-73
2022/02/20 03:45:22;;;;;;;18.92;10.30;;;;;;;5.06;87.26;100749.44;5033043;28;20543;-75
2022/02/20 03:47:48;;;;;;;18.77;9.88;;;;;;;4.96;87.40;100735.19;5032858;28;20032;-78
2022/02/20 03:50:14;;;;;;;16.70;9.82;;;;;;;5.02;87.20;100756.03;5032620;28;20108;-74
2022/02/20 03:52:39;;;;;;;20.17;9.95;;;;;;;5.05;86.42;100751.88;5033055;28;20187;-75
2022/02/20 03:55:07;;;;;;;16.65;10.02;;;;;;;5.09;86.08;100756.44;5032699;28;20153;-76
2022/02/20 03:57:33;;;;;;;15.90;9.73;;;;;;;5.10;86.50;100753.97;5032522;28;20163;-77
2022/02/20 04:00:00;;;;;;;14.35;9.88;;;;;;;5.14;85.34;100752.50;5014961;28;20112;-78
2022/02/20 04:02:29;;;;;;;14.93;9.85;;;;;;;5.07;85.40;100750.31;5032769;28;20029;-75
2022/02/20 04:04:55;;;;;;;14.98;9.93;;;;;;;5.01;86.00;100750.84;5032535;28;20032;-75
2022/02/20 04:07:20;;;;;;;17.58;8.82;;;;;;;4.94;86.34;100743.53;5032502;28;20029;-78
2022/02/20 04:09:46;;;;;;;14.27;8.55;;;;;;;4.98;86.71;100738.69;5032345;28;20035;-75
2022/02/20 04:12:11;;;;;;;15.70;9.10;;;;;;;5.01;86.00;100740.59;5032472;28;20431;-74
2022/02/20 04:14:36;;;;;;;16.60;9.48;;;;;;;4.96;85.99;100740.31;4980992;28;20041;-77
2022/02/20 04:17:02;;;;;;;18.40;9.93;;;;;;;4.88;86.32;100746.59;5032431;28;20036;-79
2022/02/20 04:19:28;;;;;;;19.90;9.77;;;;;;;4.58;86.84;100697.78;5032134;28;20021;-74
2022/02/20 04:21:53;;;;;;;15.18;8.80;;;;;;;4.43;87.15;100694.25;5032248;28;20511;-77
2022/02/20 04:24:19;;;;;;;12.63;9.10;;;;;;;4.64;87.27;100736.53;5031922;28;20026;-80
2022/02/20 04:26:44;;;;;;;16.67;9.82;;;;;;;4.55;87.17;100725.72;5032339;28;20060;-77
2022/02/20 04:29:09;;;;;;;17.08;9.80;;;;;;;3.89;87.52;100671.16;5032006;28;20112;-76
2022/02/20 04:31:36;;;;;;;20.30;9.43;;;;;;;4.12;88.64;100723.75;5031615;28;20094;-80
2022/02/20 04:34:03;;;;;;;21.77;11.35;;;;;;;4.26;88.79;100729.81;5031704;28;20025;-79
2022/02/20 04:36:28;;;;;;;21.25;10.45;;;;;;;4.31;89.03;100728.44;5031751;28;20113;-77
2022/02/20 04:38:54;;;;;;;16.13;10.23;;;;;;;4.34;88.67;100714.97;5031679;28;20100;-75
2022/02/20 04:41:21;;;;;;;22.48;10.65;;;;;;;4.51;88.77;100731.41;5031914;28;20040;-76
2022/02/20 04:43:48;;;;;;;17.85;10.02;;;;;;;4.52;88.12;100705.06;5031777;28;20029;-79
2022/02/20 04:46:14;;;;;;;17.88;9.95;;;;;;;4.45;87.18;100677.31;5031612;28;20032;-74
2022/02/20 04:48:39;;;;;;;16.67;9.43;;;;;;;4.44;86.73;100702.00;5031688;28;20029;-76
2022/02/20 04:51:04;;;;;;;18.25;9.82;;;;;;;4.23;87.44;100655.50;5031938;28;20056;-76
2022/02/20 04:53:30;;;;;;;22.13;10.55;;;;;;;4.16;87.17;100666.09;5031230;28;20061;-73
2022/02/20 04:55:55;;;;;;;21.42;10.23;;;;;;;4.11;89.44;100699.03;5031834;28;20407;-72
2022/02/20 04:58:21;;;;;;;20.98;10.15;;;;;;;4.03;89.60;100693.38;5031452;28;20030;-75
2022/02/20 05:00:46;;;;;;;24.25;11.20;;;;;;;4.18;90.03;100703.72;5031893;28;20385;-73
2022/02/20 05:03:12;;;;;;;19.15;10.68;;;;;;;4.25;90.45;100681.13;5031401;28;20142;-76
2022/02/20 05:05:37;;;;;;;23.92;12.90;;;;;;;4.31;89.98;100679.88;5031290;28;20629;-75
2022/02/20 05:08:05;;;;;;;32.80;17.50;;;;;;;4.29;89.82;100690.78;5031175;28;20522;-76
2022/02/20 05:10:30;;;;;;;27.02;12.05;;;;;;;4.13;90.47;100684.66;5031473;28;20037;-76
2022/02/20 05:12:55;;;;;;;22.40;10.52;;;;;;;3.53;92.68;100617.69;5031228;28;20104;-77
2022/02/20 05:15:21;;;;;;;25.38;9.77;;;;;;;3.77;94.15;100652.44;5030940;28;20033;-74
2022/02/20 05:17:46;;;;;;;25.83;13.63;;;;;;;4.18;94.14;100705.41;5031188;28;20033;-77
2022/02/20 05:20:12;;;;;;;22.73;11.77;;;;;;;4.19;93.24;100690.16;5031195;28;20033;-78
2022/02/20 05:22:37;;;;;;;20.55;10.27;;;;;;;4.19;92.47;100671.41;5030915;28;20421;-76
2022/02/20 05:25:03;;;;;;;32.65;16.23;;;;;;;4.47;91.55;100714.09;5031346;28;20029;-77
2022/02/20 05:27:30;;;;;;;32.25;16.13;;;;;;;4.43;91.71;100730.91;5031120;28;20435;-77
2022/02/20 05:29:56;;;;;;;22.95;12.38;;;;;;;4.32;92.69;100744.66;5031087;28;20105;-79
2022/02/20 05:32:24;;;;;;;18.27;9.57;;;;;;;4.20;92.24;100745.63;5031021;28;20120;-77
2022/02/20 05:34:55;;;;;;;19.77;10.10;;;;;;;3.99;93.42;100751.84;4996638;28;20045;-75
2022/02/20 05:37:20;;;;;;;22.47;11.17;;;;;;;3.64;95.01;100752.84;5031029;28;20052;-77
2022/02/20 05:39:47;;;;;;;19.97;12.50;;;;;;;3.34;95.49;100725.31;5030972;28;20496;-77
2022/02/20 05:42:12;;;;;;;18.50;12.80;;;;;;;3.51;96.37;100761.31;5030751;28;20560;-73
2022/02/20 05:44:38;;;;;;;21.23;13.80;;;;;;;3.48;96.69;100764.56;5012385;28;20100;-74
2022/02/20 05:47:04;;;;;;;19.63;12.00;;;;;;;3.35;97.33;100769.56;5030723;28;20025;-78
2022/02/20 05:49:29;;;;;;;20.50;13.00;;;;;;;3.23;98.99;100772.16;5030632;28;20557;-79
2022/02/20 05:51:55;;;;;;;23.33;12.83;;;;;;;3.20;99.83;100777.00;5030655;28;20128;-77
2022/02/20 05:54:20;;;;;;;21.20;12.33;;;;;;;3.32;100.00;100779.56;5030802;28;20037;-73
2022/02/20 05:56:46;;;;;;;28.40;15.20;;;;;;;3.36;100.00;100763.69;5026807;28;20061;-75
2022/02/20 05:59:12;;;;;;;58.33;34.00;;;;;;;3.56;99.96;100767.63;5029828;28;20033;-77
2022/02/20 06:01:37;;;;;;;45.07;26.03;;;;;;;3.81;98.12;100788.09;5030401;28;20033;-79
2022/02/20 06:04:03;;;;;;;51.13;28.93;;;;;;;3.94;96.43;100815.38;5011794;28;20117;-76
2022/02/20 06:06:32;;;;;;;46.50;25.73;;;;;;;3.99;96.50;100796.16;5032906;28;20033;-70
2022/02/20 06:08:59;;;;;;;38.67;20.07;;;;;;;3.87;95.85;100744.22;5030608;28;20472;-75
2022/02/20 06:11:24;;;;;;;23.50;15.30;;;;;;;4.25;94.80;100801.25;5024745;28;20039;-79
2022/02/20 06:13:50;;;;;;;26.42;13.30;;;;;;;4.28;94.30;100799.78;5028785;28;20037;-78
2022/02/20 06:16:16;;;;;;;20.20;11.90;;;;;;;4.46;93.42;100817.16;5025969;28;20033;-78
2022/02/20 06:18:41;;;;;;;18.70;10.55;;;;;;;4.49;92.34;100820.78;5027707;28;20072;-78
2022/02/20 06:21:06;;;;;;;17.15;10.27;;;;;;;4.23;93.38;100810.50;5026778;28;20049;-77
2022/02/20 06:23:32;;;;;;;19.42;11.40;;;;;;;4.31;93.35;100833.25;5029806;28;20030;-77
2022/02/20 06:26:01;;;;;;;25.25;16.17;;;;;;;4.23;92.79;100778.16;5029497;28;20076;-77
2022/02/20 06:28:26;;;;;;;31.83;18.40;;;;;;;4.50;92.73;100824.25;5027130;28;20617;-79
2022/02/20 06:30:52;;;;;;;70.35;36.72;;;;;;;4.65;92.23;100832.06;5005930;28;20026;-79
2022/02/20 06:33:17;;;;;;;65.28;35.97;;;;;;;4.47;91.96;100778.03;5008003;28;20037;-78
2022/02/20 06:35:43;;;;;;;29.38;16.27;;;;;;;4.74;91.50;100819.00;5029626;28;20029;-78
2022/02/20 06:38:08;;;;;;;29.25;17.50;;;;;;;4.55;91.72;100812.66;5030165;28;20544;-81
2022/02/20 06:40:35;;;;;;;27.15;17.13;;;;;;;4.77;92.22;100852.44;5029994;28;20111;-82
2022/02/20 06:43:00;;;;;;;26.85;17.65;;;;;;;4.81;92.66;100833.94;5009504;28;20040;-78
2022/02/20 06:45:26;;;;;;;25.73;16.38;;;;;;;4.95;92.41;100824.66;5030113;28;20017;-81
2022/02/20 06:47:52;;;;;;;23.08;12.65;;;;;;;4.49;93.09;100764.56;5012118;28;20061;-78
2022/02/20 06:50:18;;;;;;;27.73;15.52;;;;;;;4.23;98.00;100775.59;5029640;28;20038;-79
2022/02/20 06:52:44;;;;;;;19.98;13.45;;;;;;;4.41;98.96;100787.84;5023892;28;20058;-77
2022/02/20 06:55:12;;;;;;;19.70;13.60;;;;;;;4.59;98.94;100789.06;5030512;28;20114;-82
2022/02/20 06:57:39;;;;;;;20.30;12.48;;;;;;;4.50;99.77;100778.25;5016206;28;20729;-79
2022/02/20 07:00:09;;;;;;;17.05;11.82;;;;;;;4.69;100.00;100791.44;5033778;28;20034;-79
2022/02/20 07:02:36;;;;;;;21.45;12.68;;;;;;;4.48;100.00;100796.00;5031924;28;20037;-81
2022/02/20 07:05:02;;;;;;;21.92;12.88;;;;;;;4.49;100.00;100797.78;5033476;28;20079;-78
2022/02/20 07:07:28;;;;;;;23.17;13.90;;;;;;;4.72;100.00;100784.75;5015619;28;20389;-77
2022/02/20 07:09:53;;;;;;;21.38;13.55;;;;;;;4.70;100.00;100782.97;5033461;28;20071;-81
2022/02/20 07:12:19;;;;;;;20.67;12.95;;;;;;;4.80;100.00;100809.19;5033163;28;20427;-78
2022/02/20 07:14:44;;;;;;;18.02;11.50;;;;;;;4.93;100.00;100798.94;5033464;28;20040;-79
2022/02/20 07:17:10;;;;;;;19.80;11.98;;;;;;;4.95;100.00;100789.69;5015401;28;20116;-77
2022/02/20 07:19:35;;;;;;;22.98;12.77;;;;;;;4.84;100.00;100763.41;5033178;28;20026;-77
2022/02/20 07:22:00;;;;;;;20.45;11.70;;;;;;;5.13;100.00;100778.88;5033177;28;20100;-80
2022/02/20 07:24:26;;;;;;;18.58;12.30;;;;;;;5.22;99.32;100797.38;5033024;28;20033;-78
2022/02/20 07:26:52;;;;;;;20.08;12.63;;;;;;;5.23;98.29;100791.44;5033010;28;20029;-80
2022/02/20 07:29:18;;;;;;;19.05;11.00;;;;;;;5.13;97.61;100746.47;5032930;28;20033;-80
2022/02/20 07:31:43;;;;;;;21.65;11.68;;;;;;;5.01;99.66;100763.63;5032902;28;20033;-77
2022/02/20 07:34:09;;;;;;;19.85;12.15;;;;;;;5.00;100.00;100762.72;5032803;28;20475;-76
2022/02/20 07:36:34;;;;;;;17.73;10.82;;;;;;;5.05;99.75;100746.78;5032760;28;20072;-79
2022/02/20 07:39:00;;;;;;;17.23;10.98;;;;;;;4.62;100.00;100727.91;5032887;28;20037;-79
2022/02/20 07:41:25;;;;;;;20.17;14.43;;;;;;;4.82;100.00;100753.88;5014926;28;20029;-77
2022/02/20 07:43:50;;;;;;;19.95;12.35;;;;;;;4.98;100.00;100754.06;5015270;28;20544;-82
2022/02/20 07:46:17;;;;;;;20.85;12.00;;;;;;;5.29;100.00;100791.84;5032508;28;20030;-79
2022/02/20 07:48:45;;;;;;;21.05;12.48;;;;;;;5.21;100.00;100792.16;5014678;28;20488;-79
2022/02/20 07:51:11;;;;;;;22.65;13.73;;;;;;;5.14;100.00;100778.94;5032353;28;20048;-76
2022/02/20 07:53:37;;;;;;;19.33;11.57;;;;;;;5.30;100.00;100793.63;5032482;28;20038;-76
2022/02/20 07:56:03;;;;;;;17.83;11.48;;;;;;;5.23;100.00;100805.94;5031019;28;20064;-74
2022/02/20 07:58:30;;;;;;;21.25;11.73;;;;;;;4.98;100.00;100789.88;5032157;28;20025;-75
2022/02/20 08:00:56;;;;;;;23.25;11.98;;;;;;;4.95;100.00;100740.22;5032238;28;20022;-75
2022/02/20 08:03:22;;;;;;;21.17;12.52;;;;;;;5.30;100.00;100787.63;5032545;28;20112;-78
2022/02/20 08:05:48;;;;;;;27.83;16.08;;;;;;;5.45;100.00;100780.91;5032449;28;20123;-72
2022/02/20 08:08:14;;;;;;;24.35;14.20;;;;;;;5.43;100.00;100769.69;5031164;28;20041;-75
2022/02/20 08:10:39;;;;;;;21.77;14.10;;;;;;;5.38;100.00;100770.19;5032327;28;20404;-74
2022/02/20 08:13:05;;;;;;;19.08;12.60;;;;;;;5.34;100.00;100762.28;5032591;28;20083;-75
2022/02/20 08:15:30;;;;;;;20.48;12.80;;;;;;;5.43;100.00;100755.97;5032179;28;20037;-78
2022/02/20 08:17:57;;;;;;;19.95;12.70;;;;;;;5.45;100.00;100762.97;5032033;28;20037;-75
2022/02/20 08:20:22;;;;;;;18.35;11.55;;;;;;;5.43;100.00;100749.22;5032356;28;20060;-76
2022/02/20 08:22:49;;;;;;;20.45;12.13;;;;;;;5.59;100.00;100740.78;5032005;28;20053;-82
2022/02/20 08:25:15;;;;;;;17.83;11.38;;;;;;;5.63;100.00;100750.44;5032136;28;20396;-74
2022/02/20 08:27:40;;;;;;;17.40;11.77;;;;;;;5.69;100.00;100752.47;5031878;28;20033;-74
2022/02/20 08:30:09;;;;;;;23.70;11.25;;;;;;;5.82;100.00;100757.56;5031501;28;20044;-75
2022/02/20 08:32:35;;;;;;;20.75;11.57;;;;;;;5.86;100.00;100724.41;5014218;28;20041;-79
2022/02/20 08:35:01;;;;;;;18.48;11.20;;;;;;;5.56;99.06;100637.25;4989801;28;20528;-81
2022/02/20 08:37:26;;;;;;;19.70;11.65;;;;;;;6.05;98.10;100695.69;4989973;28;20044;-82
2022/02/20 08:39:52;;;;;;;21.75;12.23;;;;;;;6.30;97.09;100728.78;4989844;28;20397;-81
2022/02/20 08:42:18;;;;;;;20.73;11.85;;;;;;;6.35;96.51;100721.34;4984932;28;20042;-83
2022/02/20 08:44:44;;;;;;;19.73;11.95;;;;;;;6.51;95.82;100730.81;4978790;28;20059;-77
2022/02/20 08:47:10;;;;;;;21.25;12.38;;;;;;;6.39;95.59;100719.06;4970269;28;20031;-74
2022/02/20 08:49:36;;;;;;;21.38;12.98;;;;;;;6.23;96.08;100699.34;4970296;28;20436;-75
2022/02/20 08:52:02;;;;;;;48.50;14.10;;;;;;;6.37;94.62;100697.56;4970126;28;20063;-76
2022/02/20 08:54:28;;;;;;;19.73;11.68;;;;;;;6.71;94.08;100744.78;4980563;28;20057;-71
2022/02/20 08:56:53;;;;;;;23.10;11.25;;;;;;;6.66;93.32;100739.38;4989612;28;20038;-72
2022/02/20 08:59:19;;;;;;;18.58;11.25;;;;;;;6.58;93.53;100697.91;4989418;28;20034;-79
2022/02/20 09:01:44;;;;;;;25.35;12.77;;;;;;;6.67;92.91;100681.25;4973135;28;20042;-81
2022/02/20 09:04:12;;;;;;;16.95;10.93;;;;;;;6.93;93.29;100699.00;4989708;28;20042;-79
2022/02/20 09:06:38;;;;;;;17.10;11.30;;;;;;;7.19;93.51;100726.88;5020075;28;20087;-85
2022/02/20 09:09:05;;;;;;;16.13;11.35;;;;;;;7.12;91.82;100715.41;5031022;28;20053;-86
2022/02/20 09:11:30;;;;;;;18.90;11.73;;;;;;;7.42;91.57;100751.25;5031430;28;20033;-76
2022/02/20 09:13:56;;;;;;;18.05;11.77;;;;;;;7.26;90.15;100704.22;5031075;28;20459;-87
2022/02/20 09:16:22;;;;;;;16.90;11.65;;;;;;;7.21;90.67;100673.94;5032192;28;20157;-91
2022/02/20 09:18:47;;;;;;;15.48;10.45;;;;;;;7.60;90.57;100708.56;5014060;28;20116;-89
2022/02/20 09:21:13;;;;;;;14.18;9.02;;;;;;;7.61;90.12;100699.16;5013882;28;20476;-78
2022/02/20 09:23:39;;;;;;;14.45;10.23;;;;;;;7.58;91.15;100693.88;5011339;28;20123;-78
2022/02/20 09:26:05;;;;;;;18.33;10.35;;;;;;;7.73;91.74;100697.25;5011059;28;20488;-75
2022/02/20 09:28:30;;;;;;;16.23;9.82;;;;;;;7.74;88.35;100698.13;5029696;28;20159;-79
2022/02/20 09:30:56;;;;;;;17.35;9.90;;;;;;;7.99;88.37;100710.56;5029972;28;20022;-79
2022/02/20 09:33:21;;;;;;;16.05;10.30;;;;;;;8.05;83.32;100664.59;5029705;28;20030;-80
2022/02/20 09:35:47;;;;;;;16.45;10.65;;;;;;;8.16;84.76;100675.44;5011785;28;20695;-77
2022/02/20 09:38:12;;;;;;;18.60;10.20;;;;;;;8.13;82.94;100693.25;5030011;28;20033;-79
2022/02/20 09:40:38;;;;;;;15.25;9.82;;;;;;;8.31;82.18;100695.88;5029688;28;20030;-78
2022/02/20 09:43:04;;;;;;;14.98;10.43;;;;;;;8.34;81.81;100683.16;5029163;28;20557;-79
2022/02/20 09:45:30;;;;;;;16.88;10.30;;;;;;;8.41;81.95;100697.19;5029216;28;20509;-77
2022/02/20 09:48:01;;;;;;;15.52;10.73;;;;;;;8.24;82.13;100648.38;5029451;28;20087;-80
2022/02/20 09:50:27;;;;;;;15.68;10.75;;;;;;;8.38;82.15;100656.75;5011193;28;20464;-77
2022/02/20 09:52:53;;;;;;;16.45;10.07;;;;;;;8.40;82.02;100651.72;5029066;28;20056;-78
2022/02/20 09:55:18;;;;;;;18.77;11.00;;;;;;;8.41;83.04;100661.16;5012117;28;20033;-81
2022/02/20 09:57:44;;;;;;;19.35;10.90;;;;;;;8.45;81.02;100645.09;5028970;28;20029;-81
2022/02/20 10:00:10;;;;;;;18.73;10.40;;;;;;;8.52;81.61;100654.91;5029769;28;20041;-80
2022/02/20 10:02:37;;;;;;;18.80;10.02;;;;;;;8.56;81.36;100664.53;5028219;28;20025;-80
2022/02/20 10:05:04;;;;;;;15.00;10.27;;;;;;;8.53;80.68;100659.22;5026580;28;20443;-77
2022/02/20 10:07:39;;;;;;;19.63;10.48;;;;;;;8.67;78.81;100641.91;5027112;28;20072;-78
2022/02/20 10:10:21;;;;;;;17.48;9.48;;;;;;;8.80;80.67;100650.16;5029054;28;20047;-80
2022/02/20 10:12:57;;;;;;;16.60;10.40;;;;;;;8.80;79.98;100624.44;5030163;28;20040;-79
2022/02/20 10:15:35;;;;;;;15.70;10.43;;;;;;;9.11;76.40;100633.56;5030353;28;20415;-79
2022/02/20 10:18:10;;;;;;;15.20;10.35;;;;;;;9.15;76.82;100630.34;5012394;28;20084;-79
2022/02/20 10:20:36;;;;;;;16.30;11.10;;;;;;;9.25;75.94;100634.22;5029853;28;20487;-77
2022/02/20 10:23:12;;;;;;;19.48;10.80;;;;;;;9.36;76.04;100620.13;5030115;28;20022;-75
2022/02/20 10:25:37;;;;;;;23.90;11.93;;;;;;;9.33;75.08;100607.09;5029963;28;20046;-76
2022/02/20 10:28:06;;;;;;;17.08;10.55;;;;;;;9.29;74.31;100576.84;5030733;28;20131;-74
2022/02/20 10:30:33;;;;;;;17.55;11.10;;;;;;;9.61;73.49;100611.75;5031610;28;20075;-75
2022/02/20 10:33:04;;;;;;;23.10;12.90;;;;;;;9.70;72.55;100624.16;5034066;28;20491;-77
2022/02/20 10:35:32;;;;;;;16.50;11.00;;;;;;;9.82;71.69;100626.34;5034179;28;20060;-77
2022/02/20 10:37:58;;;;;;;17.90;10.55;;;;;;;9.67;72.66;100635.22;5034525;28;20061;-77
2022/02/20 10:40:25;;;;;;;28.95;16.92;;;;;;;9.95;70.96;100659.59;5033975;28;20109;-76
2022/02/20 10:42:56;;;;;;;16.90;10.38;;;;;;;10.03;72.13;100659.91;5033894;28;20480;-75
2022/02/20 10:45:28;;;;;;;18.25;10.57;;;;;;;10.31;69.85;100659.38;5033850;28;20041;-76
2022/02/20 10:47:55;;;;;;;54.75;14.00;;;;;;;10.46;66.65;100643.66;5032390;28;20569;-77
2022/02/20 10:50:24;;;;;;;22.40;12.52;;;;;;;10.56;65.05;100639.75;5011772;28;20080;-79
2022/02/20 10:53:11;;;;;;;21.77;11.77;;;;;;;10.82;63.85;100614.06;5029483;28;20053;-76
2022/02/20 10:55:44;;;;;;;21.73;11.40;;;;;;;11.03;62.57;100614.00;5032613;28;20033;-74
2022/02/20 10:58:11;;;;;;;18.63;10.50;;;;;;;11.13;61.98;100600.59;5033097;28;20068;-76
2022/02/20 11:00:46;;;;;;;16.10;9.30;;;;;;;11.21;61.48;100594.81;5031311;28;20033;-77
2022/02/20 11:03:12;;;;;;;20.02;9.98;;;;;;;11.15;60.70;100575.69;5032795;28;20485;-79
2022/02/20 11:05:39;;;;;;;18.35;8.98;;;;;;;11.45;59.83;100585.38;5033214;28;20108;-79
2022/02/20 11:08:05;;;;;;;16.05;9.68;;;;;;;11.32;60.16;100536.66;5033619;28;20022;-76
2022/02/20 11:10:32;;;;;;;15.20;9.80;;;;;;;11.70;59.64;100560.38;5033167;28;20021;-78
2022/02/20 11:12:57;;;;;;;13.73;9.07;;;;;;;12.02;57.35;100562.28;5032859;28;20037;-81
2022/02/20 11:15:24;;;;;;;14.10;9.30;;;;;;;12.02;57.29;100557.09;5015233;28;20029;-76